sensor_id;sensor_type;location;lat;lon;timestamp;P1;durP1;ratioP1;P2;durP2;ratioP2
18716;SDS011;9487;50.892;6.906;2023-04-01T00:01:15;1.40;;;0.57;;
18716;SDS011;9487;50.892;6.906;2023-04-01T00:03:41;2.07;;;0.80;;
18716;SDS011;9487;50.892;6.906;2023-04-01T00:06:09;0.77;;;0.60;;
18716;SDS011;9487;50.892;6.906;2023-04-01T00:08:38;1.80;;;0.70;;
18716;SDS011;9487;50.892;6.906;2023-04-01T00:11:07;1.93;;;0.60;;
18716;SDS011;9487;50.892;6.906;2023-04-01T00:13:33;1.07;;;0.50;;
18716;SDS011;9487;50.892;6.906;2023-04-01T00:16:00;0.97;;;0.50;;
18716;SDS011;9487;50.892;6.906;2023-04-01T00:18:29;1.77;;;0.70;;
18716;SDS011;9487;50.892;6.906;2023-04-01T00:20:56;1.27;;;0.73;;
18716;SDS011;9487;50.892;6.906;2023-04-01T00:23:23;1.57;;;0.80;;
18716;SDS011;9487;50.892;6.906;2023-04-01T00:25:50;1.00;;;0.60;;
18716;SDS011;9487;50.892;6.906;2023-04-01T00:28:18;1.20;;;0.50;;
18716;SDS011;9487;50.892;6.906;2023-04-01T00:30:46;0.60;;;0.47;;
18716;SDS011;9487;50.892;6.906;2023-04-01T00:33:13;0.97;;;0.40;;
18716;SDS011;9487;50.892;6.906;2023-04-01T00:35:41;0.87;;;0.47;;
18716;SDS011;9487;50.892;6.906;2023-04-01T00:38:08;0.97;;;0.63;;
18716;SDS011;9487;50.892;6.906;2023-04-01T00:40:37;0.97;;;0.60;;
18716;SDS011;9487;50.892;6.906;2023-04-01T00:43:08;1.23;;;0.57;;
18716;SDS011;9487;50.892;6.906;2023-04-01T00:45:39;0.83;;;0.50;;
18716;SDS011;9487;50.892;6.906;2023-04-01T00:48:09;1.20;;;0.43;;
18716;SDS011;9487;50.892;6.906;2023-04-01T00:50:39;1.33;;;0.60;;
18716;SDS011;9487;50.892;6.906;2023-04-01T00:53:08;0.77;;;0.50;;
18716;SDS011;9487;50.892;6.906;2023-04-01T00:55:37;4.03;;;0.60;;
18716;SDS011;9487;50.892;6.906;2023-04-01T00:58:08;0.80;;;0.60;;
18716;SDS011;9487;50.892;6.906;2023-04-01T01:00:42;1.13;;;0.40;;
18716;SDS011;9487;50.892;6.906;2023-04-01T01:03:09;1.67;;;0.60;;
18716;SDS011;9487;50.892;6.906;2023-04-01T01:05:40;2.27;;;0.60;;
18716;SDS011;9487;50.892;6.906;2023-04-01T01:08:25;0.80;;;0.40;;
18716;SDS011;9487;50.892;6.906;2023-04-01T01:11:02;1.37;;;0.40;;
18716;SDS011;9487;50.892;6.906;2023-04-01T01:13:36;0.93;;;0.50;;
18716;SDS011;9487;50.892;6.906;2023-04-01T01:16:12;0.80;;;0.40;;
18716;SDS011;9487;50.892;6.906;2023-04-01T01:18:46;0.63;;;0.40;;
18716;SDS011;9487;50.892;6.906;2023-04-01T01:21:29;1.43;;;0.60;;
18716;SDS011;9487;50.892;6.906;2023-04-01T01:27:10;1.13;;;0.60;;
18716;SDS011;9487;50.892;6.906;2023-04-01T01:30:00;2.17;;;0.50;;
18716;SDS011;9487;50.892;6.906;2023-04-01T01:33:06;1.57;;;0.47;;
18716;SDS011;9487;50.892;6.906;2023-04-01T01:35:47;1.33;;;0.50;;
18716;SDS011;9487;50.892;6.906;2023-04-01T01:38:16;0.40;;;0.30;;
18716;SDS011;9487;50.892;6.906;2023-04-01T01:40:45;1.83;;;0.50;;
18716;SDS011;9487;50.892;6.906;2023-04-01T01:43:17;0.50;;;0.40;;
18716;SDS011;9487;50.892;6.906;2023-04-01T01:45:49;1.03;;;0.43;;
18716;SDS011;9487;50.892;6.906;2023-04-01T01:48:20;0.97;;;0.50;;
18716;SDS011;9487;50.892;6.906;2023-04-01T01:50:50;1.87;;;0.50;;
18716;SDS011;9487;50.892;6.906;2023-04-01T01:53:18;0.70;;;0.40;;
18716;SDS011;9487;50.892;6.906;2023-04-01T01:55:45;0.40;;;0.30;;
18716;SDS011;9487;50.892;6.906;2023-04-01T01:58:13;0.80;;;0.40;;
18716;SDS011;9487;50.892;6.906;2023-04-01T02:00:46;1.17;;;0.60;;
18716;SDS011;9487;50.892;6.906;2023-04-01T02:03:16;0.70;;;0.50;;
18716;SDS011;9487;50.892;6.906;2023-04-01T02:05:45;0.60;;;0.43;;
18716;SDS011;9487;50.892;6.906;2023-04-01T02:08:15;0.97;;;0.40;;
18716;SDS011;9487;50.892;6.906;2023-04-01T02:10:47;0.60;;;0.37;;
18716;SDS011;9487;50.892;6.906;2023-04-01T02:13:21;1.90;;;0.53;;
18716;SDS011;9487;50.892;6.906;2023-04-01T02:15:54;1.53;;;0.40;;
18716;SDS011;9487;50.892;6.906;2023-04-01T02:18:22;1.80;;;0.50;;
18716;SDS011;9487;50.892;6.906;2023-04-01T02:20:50;2.60;;;0.50;;
18716;SDS011;9487;50.892;6.906;2023-04-01T02:23:18;1.03;;;0.60;;
18716;SDS011;9487;50.892;6.906;2023-04-01T02:25:46;1.00;;;0.50;;
18716;SDS011;9487;50.892;6.906;2023-04-01T02:28:13;1.63;;;0.70;;
18716;SDS011;9487;50.892;6.906;2023-04-01T02:30:44;1.13;;;0.70;;
18716;SDS011;9487;50.892;6.906;2023-04-01T02:33:12;0.90;;;0.50;;
18716;SDS011;9487;50.892;6.906;2023-04-01T02:35:39;0.97;;;0.40;;
18716;SDS011;9487;50.892;6.906;2023-04-01T02:38:06;0.70;;;0.40;;
18716;SDS011;9487;50.892;6.906;2023-04-01T02:40:45;0.93;;;0.40;;
18716;SDS011;9487;50.892;6.906;2023-04-01T02:43:13;1.17;;;0.30;;
18716;SDS011;9487;50.892;6.906;2023-04-01T02:45:41;0.90;;;0.40;;
18716;SDS011;9487;50.892;6.906;2023-04-01T02:48:08;2.57;;;0.40;;
18716;SDS011;9487;50.892;6.906;2023-04-01T02:50:34;0.63;;;0.40;;
18716;SDS011;9487;50.892;6.906;2023-04-01T02:53:01;0.80;;;0.37;;
18716;SDS011;9487;50.892;6.906;2023-04-01T02:55:31;0.80;;;0.30;;
18716;SDS011;9487;50.892;6.906;2023-04-01T02:57:59;1.93;;;0.40;;
18716;SDS011;9487;50.892;6.906;2023-04-01T03:00:26;0.77;;;0.40;;
18716;SDS011;9487;50.892;6.906;2023-04-01T03:02:53;1.23;;;0.30;;
18716;SDS011;9487;50.892;6.906;2023-04-01T03:05:21;2.27;;;0.50;;
18716;SDS011;9487;50.892;6.906;2023-04-01T03:07:48;0.70;;;0.47;;
18716;SDS011;9487;50.892;6.906;2023-04-01T03:10:15;0.60;;;0.40;;
18716;SDS011;9487;50.892;6.906;2023-04-01T03:12:41;0.77;;;0.30;;
18716;SDS011;9487;50.892;6.906;2023-04-01T03:15:11;0.60;;;0.50;;
18716;SDS011;9487;50.892;6.906;2023-04-01T03:17:39;1.20;;;0.30;;
18716;SDS011;9487;50.892;6.906;2023-04-01T03:20:06;0.87;;;0.40;;
18716;SDS011;9487;50.892;6.906;2023-04-01T03:22:36;0.50;;;0.30;;
18716;SDS011;9487;50.892;6.906;2023-04-01T03:25:03;0.70;;;0.40;;
18716;SDS011;9487;50.892;6.906;2023-04-01T03:27:32;0.23;;;0.20;;
18716;SDS011;9487;50.892;6.906;2023-04-01T03:29:59;1.33;;;0.50;;
18716;SDS011;9487;50.892;6.906;2023-04-01T03:32:27;0.77;;;0.30;;
18716;SDS011;9487;50.892;6.906;2023-04-01T03:34:54;0.50;;;0.30;;
18716;SDS011;9487;50.892;6.906;2023-04-01T03:37:21;0.60;;;0.30;;
18716;SDS011;9487;50.892;6.906;2023-04-01T03:39:48;1.40;;;0.50;;
18716;SDS011;9487;50.892;6.906;2023-04-01T03:42:15;2.73;;;0.70;;
18716;SDS011;9487;50.892;6.906;2023-04-01T03:44:42;0.57;;;0.30;;
18716;SDS011;9487;50.892;6.906;2023-04-01T03:47:08;0.70;;;0.50;;
18716;SDS011;9487;50.892;6.906;2023-04-01T03:49:36;1.43;;;0.40;;
18716;SDS011;9487;50.892;6.906;2023-04-01T03:52:03;0.43;;;0.30;;
18716;SDS011;9487;50.892;6.906;2023-04-01T03:54:30;0.70;;;0.30;;
18716;SDS011;9487;50.892;6.906;2023-04-01T03:56:57;0.73;;;0.40;;
18716;SDS011;9487;50.892;6.906;2023-04-01T03:59:24;0.50;;;0.40;;
18716;SDS011;9487;50.892;6.906;2023-04-01T04:01:51;0.80;;;0.40;;
18716;SDS011;9487;50.892;6.906;2023-04-01T04:04:17;1.80;;;0.70;;
18716;SDS011;9487;50.892;6.906;2023-04-01T04:06:46;0.50;;;0.40;;
18716;SDS011;9487;50.892;6.906;2023-04-01T04:09:13;1.30;;;0.40;;
18716;SDS011;9487;50.892;6.906;2023-04-01T04:11:40;1.27;;;0.50;;
18716;SDS011;9487;50.892;6.906;2023-04-01T04:14:06;0.50;;;0.30;;
18716;SDS011;9487;50.892;6.906;2023-04-01T04:16:34;0.53;;;0.40;;
18716;SDS011;9487;50.892;6.906;2023-04-01T04:19:02;1.43;;;0.60;;
18716;SDS011;9487;50.892;6.906;2023-04-01T04:21:29;0.70;;;0.40;;
18716;SDS011;9487;50.892;6.906;2023-04-01T04:23:59;0.60;;;0.40;;
18716;SDS011;9487;50.892;6.906;2023-04-01T04:26:26;0.50;;;0.30;;
18716;SDS011;9487;50.892;6.906;2023-04-01T04:28:53;0.87;;;0.60;;
18716;SDS011;9487;50.892;6.906;2023-04-01T04:31:21;1.27;;;0.50;;
18716;SDS011;9487;50.892;6.906;2023-04-01T04:33:49;0.60;;;0.40;;
18716;SDS011;9487;50.892;6.906;2023-04-01T04:36:17;0.83;;;0.47;;
18716;SDS011;9487;50.892;6.906;2023-04-01T04:38:44;1.37;;;0.70;;
18716;SDS011;9487;50.892;6.906;2023-04-01T04:41:12;1.80;;;0.80;;
18716;SDS011;9487;50.892;6.906;2023-04-01T04:43:40;1.37;;;0.50;;
18716;SDS011;9487;50.892;6.906;2023-04-01T04:46:07;1.40;;;0.80;;
18716;SDS011;9487;50.892;6.906;2023-04-01T04:48:34;1.80;;;0.60;;
18716;SDS011;9487;50.892;6.906;2023-04-01T04:51:02;1.07;;;0.70;;
18716;SDS011;9487;50.892;6.906;2023-04-01T04:53:30;1.53;;;0.57;;
18716;SDS011;9487;50.892;6.906;2023-04-01T04:55:56;1.60;;;0.70;;
18716;SDS011;9487;50.892;6.906;2023-04-01T04:58:25;1.43;;;0.50;;
18716;SDS011;9487;50.892;6.906;2023-04-01T05:00:51;1.53;;;0.70;;
18716;SDS011;9487;50.892;6.906;2023-04-01T05:03:18;1.50;;;0.83;;
18716;SDS011;9487;50.892;6.906;2023-04-01T05:05:48;2.97;;;0.80;;
18716;SDS011;9487;50.892;6.906;2023-04-01T05:08:16;1.77;;;0.70;;
18716;SDS011;9487;50.892;6.906;2023-04-01T05:10:43;1.63;;;0.57;;
18716;SDS011;9487;50.892;6.906;2023-04-01T05:13:10;1.50;;;0.97;;
18716;SDS011;9487;50.892;6.906;2023-04-01T05:15:38;0.97;;;0.60;;
18716;SDS011;9487;50.892;6.906;2023-04-01T05:18:05;1.53;;;0.60;;
18716;SDS011;9487;50.892;6.906;2023-04-01T05:20:32;0.83;;;0.40;;
18716;SDS011;9487;50.892;6.906;2023-04-01T05:22:59;0.83;;;0.70;;
18716;SDS011;9487;50.892;6.906;2023-04-01T05:25:26;1.00;;;0.50;;
18716;SDS011;9487;50.892;6.906;2023-04-01T05:27:53;0.73;;;0.50;;
18716;SDS011;9487;50.892;6.906;2023-04-01T05:30:20;1.57;;;0.97;;
18716;SDS011;9487;50.892;6.906;2023-04-01T05:32:48;1.37;;;1.00;;
18716;SDS011;9487;50.892;6.906;2023-04-01T05:35:15;1.20;;;1.00;;
18716;SDS011;9487;50.892;6.906;2023-04-01T05:37:42;1.50;;;1.40;;
18716;SDS011;9487;50.892;6.906;2023-04-01T05:40:09;1.30;;;1.20;;
18716;SDS011;9487;50.892;6.906;2023-04-01T05:42:36;1.97;;;1.20;;
18716;SDS011;9487;50.892;6.906;2023-04-01T05:45:03;1.50;;;1.40;;
18716;SDS011;9487;50.892;6.906;2023-04-01T05:47:31;2.03;;;1.33;;
18716;SDS011;9487;50.892;6.906;2023-04-01T05:49:59;1.90;;;1.40;;
18716;SDS011;9487;50.892;6.906;2023-04-01T05:52:26;1.77;;;1.60;;
18716;SDS011;9487;50.892;6.906;2023-04-01T05:54:52;2.03;;;1.83;;
18716;SDS011;9487;50.892;6.906;2023-04-01T05:57:19;2.40;;;2.10;;
18716;SDS011;9487;50.892;6.906;2023-04-01T05:59:46;2.20;;;1.30;;
18716;SDS011;9487;50.892;6.906;2023-04-01T06:02:13;2.13;;;1.00;;
18716;SDS011;9487;50.892;6.906;2023-04-01T06:04:43;2.07;;;1.20;;
18716;SDS011;9487;50.892;6.906;2023-04-01T06:07:12;2.10;;;1.13;;
18716;SDS011;9487;50.892;6.906;2023-04-01T06:09:40;1.57;;;1.03;;
18716;SDS011;9487;50.892;6.906;2023-04-01T06:12:15;2.30;;;1.00;;
18716;SDS011;9487;50.892;6.906;2023-04-01T06:15:03;2.17;;;1.80;;
18716;SDS011;9487;50.892;6.906;2023-04-01T06:17:47;1.67;;;1.50;;
18716;SDS011;9487;50.892;6.906;2023-04-01T06:20:28;2.30;;;1.70;;
18716;SDS011;9487;50.892;6.906;2023-04-01T06:23:19;3.23;;;1.80;;
18716;SDS011;9487;50.892;6.906;2023-04-01T06:26:02;1.80;;;1.50;;
18716;SDS011;9487;50.892;6.906;2023-04-01T06:28:41;1.63;;;1.53;;
18716;SDS011;9487;50.892;6.906;2023-04-01T06:31:20;1.90;;;1.73;;
18716;SDS011;9487;50.892;6.906;2023-04-01T06:34:02;1.90;;;1.70;;
18716;SDS011;9487;50.892;6.906;2023-04-01T06:36:51;2.27;;;2.07;;
18716;SDS011;9487;50.892;6.906;2023-04-01T06:39:45;2.97;;;2.10;;
18716;SDS011;9487;50.892;6.906;2023-04-01T06:42:36;2.93;;;2.30;;
18716;SDS011;9487;50.892;6.906;2023-04-01T06:45:27;3.63;;;2.37;;
18716;SDS011;9487;50.892;6.906;2023-04-01T06:48:09;2.63;;;2.00;;
18716;SDS011;9487;50.892;6.906;2023-04-01T06:50:47;2.20;;;2.00;;
18716;SDS011;9487;50.892;6.906;2023-04-01T06:53:19;3.10;;;2.37;;
18716;SDS011;9487;50.892;6.906;2023-04-01T06:55:55;3.00;;;2.50;;
18716;SDS011;9487;50.892;6.906;2023-04-01T06:58:29;3.40;;;2.80;;
18716;SDS011;9487;50.892;6.906;2023-04-01T07:01:01;2.33;;;1.93;;
18716;SDS011;9487;50.892;6.906;2023-04-01T07:03:30;3.37;;;2.50;;
18716;SDS011;9487;50.892;6.906;2023-04-01T07:06:01;3.37;;;2.30;;
18716;SDS011;9487;50.892;6.906;2023-04-01T07:08:30;2.63;;;2.17;;
18716;SDS011;9487;50.892;6.906;2023-04-01T07:11:03;2.60;;;2.23;;
18716;SDS011;9487;50.892;6.906;2023-04-01T07:13:32;4.07;;;1.90;;
18716;SDS011;9487;50.892;6.906;2023-04-01T07:16:08;3.93;;;1.97;;
18716;SDS011;9487;50.892;6.906;2023-04-01T07:18:41;2.23;;;1.73;;
18716;SDS011;9487;50.892;6.906;2023-04-01T07:21:15;1.27;;;1.17;;
18716;SDS011;9487;50.892;6.906;2023-04-01T07:23:50;1.67;;;1.17;;
18716;SDS011;9487;50.892;6.906;2023-04-01T07:26:22;1.23;;;1.03;;
18716;SDS011;9487;50.892;6.906;2023-04-01T07:28:50;2.53;;;1.10;;
18716;SDS011;9487;50.892;6.906;2023-04-01T07:31:20;2.37;;;1.40;;
18716;SDS011;9487;50.892;6.906;2023-04-01T07:33:58;1.50;;;1.40;;
18716;SDS011;9487;50.892;6.906;2023-04-01T07:36:37;1.70;;;1.43;;
18716;SDS011;9487;50.892;6.906;2023-04-01T07:39:10;2.07;;;1.20;;
18716;SDS011;9487;50.892;6.906;2023-04-01T07:41:48;2.63;;;1.23;;
18716;SDS011;9487;50.892;6.906;2023-04-01T07:44:21;1.33;;;1.23;;
18716;SDS011;9487;50.892;6.906;2023-04-01T07:46:57;2.03;;;1.30;;
18716;SDS011;9487;50.892;6.906;2023-04-01T07:49:34;2.53;;;1.00;;
18716;SDS011;9487;50.892;6.906;2023-04-01T07:52:06;1.20;;;1.10;;
18716;SDS011;9487;50.892;6.906;2023-04-01T07:54:38;0.93;;;0.93;;
18716;SDS011;9487;50.892;6.906;2023-04-01T07:57:14;1.73;;;1.40;;
18716;SDS011;9487;50.892;6.906;2023-04-01T07:59:46;1.37;;;0.90;;
18716;SDS011;9487;50.892;6.906;2023-04-01T08:02:25;0.70;;;0.70;;
18716;SDS011;9487;50.892;6.906;2023-04-01T08:05:04;0.80;;;0.70;;
18716;SDS011;9487;50.892;6.906;2023-04-01T08:07:42;1.37;;;0.90;;
18716;SDS011;9487;50.892;6.906;2023-04-01T08:10:18;1.23;;;0.80;;
18716;SDS011;9487;50.892;6.906;2023-04-01T08:12:55;1.07;;;0.80;;
18716;SDS011;9487;50.892;6.906;2023-04-01T08:15:35;0.80;;;0.80;;
18716;SDS011;9487;50.892;6.906;2023-04-01T08:18:11;0.87;;;0.80;;
18716;SDS011;9487;50.892;6.906;2023-04-01T08:20:46;1.57;;;0.70;;
18716;SDS011;9487;50.892;6.906;2023-04-01T08:23:17;1.00;;;0.90;;
18716;SDS011;9487;50.892;6.906;2023-04-01T08:25:49;1.80;;;0.70;;
18716;SDS011;9487;50.892;6.906;2023-04-01T08:28:24;0.67;;;0.60;;
18716;SDS011;9487;50.892;6.906;2023-04-01T08:30:56;1.33;;;0.70;;
18716;SDS011;9487;50.892;6.906;2023-04-01T08:33:27;0.80;;;0.80;;
18716;SDS011;9487;50.892;6.906;2023-04-01T08:35:56;1.20;;;0.70;;
18716;SDS011;9487;50.892;6.906;2023-04-01T08:38:29;1.60;;;0.63;;
18716;SDS011;9487;50.892;6.906;2023-04-01T08:41:06;1.87;;;1.00;;
18716;SDS011;9487;50.892;6.906;2023-04-01T08:47:05;1.57;;;1.10;;
18716;SDS011;9487;50.892;6.906;2023-04-01T08:49:55;0.87;;;0.87;;
18716;SDS011;9487;50.892;6.906;2023-04-01T08:52:34;2.43;;;0.80;;
18716;SDS011;9487;50.892;6.906;2023-04-01T08:55:13;0.70;;;0.70;;
18716;SDS011;9487;50.892;6.906;2023-04-01T08:57:56;1.63;;;0.80;;
18716;SDS011;9487;50.892;6.906;2023-04-01T09:00:45;0.80;;;0.80;;
18716;SDS011;9487;50.892;6.906;2023-04-01T09:03:19;1.20;;;0.80;;
18716;SDS011;9487;50.892;6.906;2023-04-01T09:06:06;0.73;;;0.73;;
18716;SDS011;9487;50.892;6.906;2023-04-01T09:09:18;1.57;;;0.80;;
18716;SDS011;9487;50.892;6.906;2023-04-01T09:12:02;1.10;;;0.90;;
18716;SDS011;9487;50.892;6.906;2023-04-01T09:15:01;1.20;;;0.83;;
18716;SDS011;9487;50.892;6.906;2023-04-01T09:18:03;1.10;;;0.90;;
18716;SDS011;9487;50.892;6.906;2023-04-01T09:20:53;1.50;;;1.10;;
18716;SDS011;9487;50.892;6.906;2023-04-01T09:23:37;0.80;;;0.73;;
18716;SDS011;9487;50.892;6.906;2023-04-01T09:26:18;0.80;;;0.80;;
18716;SDS011;9487;50.892;6.906;2023-04-01T09:29:11;1.33;;;1.00;;
18716;SDS011;9487;50.892;6.906;2023-04-01T09:32:03;0.70;;;0.70;;
18716;SDS011;9487;50.892;6.906;2023-04-01T09:34:43;1.20;;;0.90;;
18716;SDS011;9487;50.892;6.906;2023-04-01T09:37:21;1.17;;;1.00;;
18716;SDS011;9487;50.892;6.906;2023-04-01T09:40:09;1.13;;;1.03;;
18716;SDS011;9487;50.892;6.906;2023-04-01T09:42:44;1.23;;;1.10;;
18716;SDS011;9487;50.892;6.906;2023-04-01T09:45:35;1.30;;;1.20;;
18716;SDS011;9487;50.892;6.906;2023-04-01T09:48:12;1.53;;;1.20;;
18716;SDS011;9487;50.892;6.906;2023-04-01T09:50:51;0.90;;;0.90;;
18716;SDS011;9487;50.892;6.906;2023-04-01T09:53:29;0.87;;;0.87;;
18716;SDS011;9487;50.892;6.906;2023-04-01T10:08:48;1.43;;;0.80;;
18716;SDS011;9487;50.892;6.906;2023-04-01T10:14:52;1.10;;;0.90;;
18716;SDS011;9487;50.892;6.906;2023-04-01T10:17:56;1.53;;;0.93;;
18716;SDS011;9487;50.892;6.906;2023-04-01T10:20:55;1.03;;;1.00;;
18716;SDS011;9487;50.892;6.906;2023-04-01T10:23:41;1.80;;;1.23;;
18716;SDS011;9487;50.892;6.906;2023-04-01T10:32:38;1.10;;;0.80;;
18716;SDS011;9487;50.892;6.906;2023-04-01T10:38:51;1.43;;;1.30;;
18716;SDS011;9487;50.892;6.906;2023-04-01T10:41:54;1.03;;;1.00;;
18716;SDS011;9487;50.892;6.906;2023-04-01T10:45:04;1.23;;;1.13;;
18716;SDS011;9487;50.892;6.906;2023-04-01T10:48:21;1.30;;;1.00;;
18716;SDS011;9487;50.892;6.906;2023-04-01T10:51:15;1.53;;;1.00;;
18716;SDS011;9487;50.892;6.906;2023-04-01T10:53:57;1.40;;;1.10;;
18716;SDS011;9487;50.892;6.906;2023-04-01T10:56:50;1.23;;;1.07;;
18716;SDS011;9487;50.892;6.906;2023-04-01T10:59:28;0.90;;;0.80;;
18716;SDS011;9487;50.892;6.906;2023-04-01T11:15:06;1.33;;;1.00;;
18716;SDS011;9487;50.892;6.906;2023-04-01T11:20:55;1.17;;;0.90;;
18716;SDS011;9487;50.892;6.906;2023-04-01T11:26:41;0.70;;;0.70;;
18716;SDS011;9487;50.892;6.906;2023-04-01T11:29:29;1.87;;;1.17;;
18716;SDS011;9487;50.892;6.906;2023-04-01T11:32:12;1.20;;;1.00;;
18716;SDS011;9487;50.892;6.906;2023-04-01T11:34:54;0.90;;;0.90;;
18716;SDS011;9487;50.892;6.906;2023-04-01T11:37:34;0.90;;;0.90;;
18716;SDS011;9487;50.892;6.906;2023-04-01T11:40:11;1.27;;;1.17;;
18716;SDS011;9487;50.892;6.906;2023-04-01T11:42:49;1.00;;;1.00;;
18716;SDS011;9487;50.892;6.906;2023-04-01T11:45:28;1.23;;;1.13;;
18716;SDS011;9487;50.892;6.906;2023-04-01T11:51:04;1.27;;;1.17;;
18716;SDS011;9487;50.892;6.906;2023-04-01T11:53:56;1.50;;;1.40;;
18716;SDS011;9487;50.892;6.906;2023-04-01T11:56:30;1.20;;;1.10;;
18716;SDS011;9487;50.892;6.906;2023-04-01T11:59:27;1.67;;;1.30;;
18716;SDS011;9487;50.892;6.906;2023-04-01T12:02:12;1.70;;;1.20;;
18716;SDS011;9487;50.892;6.906;2023-04-01T12:04:51;1.60;;;1.17;;
18716;SDS011;9487;50.892;6.906;2023-04-01T12:07:52;1.30;;;1.20;;
18716;SDS011;9487;50.892;6.906;2023-04-01T12:10:26;1.33;;;1.23;;
18716;SDS011;9487;50.892;6.906;2023-04-01T12:13:01;0.87;;;0.87;;
18716;SDS011;9487;50.892;6.906;2023-04-01T12:15:33;1.20;;;1.10;;
18716;SDS011;9487;50.892;6.906;2023-04-01T12:18:14;1.13;;;1.03;;
18716;SDS011;9487;50.892;6.906;2023-04-01T12:20:49;1.40;;;1.00;;
18716;SDS011;9487;50.892;6.906;2023-04-01T12:23:27;1.83;;;0.90;;
18716;SDS011;9487;50.892;6.906;2023-04-01T12:26:17;1.73;;;1.10;;
18716;SDS011;9487;50.892;6.906;2023-04-01T12:29:00;1.07;;;1.07;;
18716;SDS011;9487;50.892;6.906;2023-04-01T12:31:37;1.50;;;1.40;;
18716;SDS011;9487;50.892;6.906;2023-04-01T12:34:21;1.23;;;1.07;;
18716;SDS011;9487;50.892;6.906;2023-04-01T12:37:09;1.23;;;1.00;;
18716;SDS011;9487;50.892;6.906;2023-04-01T12:39:45;1.20;;;1.10;;
18716;SDS011;9487;50.892;6.906;2023-04-01T12:42:24;1.37;;;1.27;;
18716;SDS011;9487;50.892;6.906;2023-04-01T12:45:16;2.37;;;1.20;;
18716;SDS011;9487;50.892;6.906;2023-04-01T12:48:16;1.00;;;1.00;;
18716;SDS011;9487;50.892;6.906;2023-04-01T12:51:11;1.10;;;1.00;;
18716;SDS011;9487;50.892;6.906;2023-04-01T12:57:03;1.40;;;1.30;;
18716;SDS011;9487;50.892;6.906;2023-04-01T12:59:46;1.33;;;1.23;;
18716;SDS011;9487;50.892;6.906;2023-04-01T13:02:27;1.30;;;1.20;;
18716;SDS011;9487;50.892;6.906;2023-04-01T13:05:15;1.53;;;1.40;;
18716;SDS011;9487;50.892;6.906;2023-04-01T13:08:15;1.40;;;1.30;;
18716;SDS011;9487;50.892;6.906;2023-04-01T13:11:08;1.40;;;1.30;;
18716;SDS011;9487;50.892;6.906;2023-04-01T13:13:55;1.50;;;1.40;;
18716;SDS011;9487;50.892;6.906;2023-04-01T13:16:41;1.57;;;1.47;;
18716;SDS011;9487;50.892;6.906;2023-04-01T13:19:13;1.60;;;1.50;;
18716;SDS011;9487;50.892;6.906;2023-04-01T13:21:49;1.50;;;1.40;;
18716;SDS011;9487;50.892;6.906;2023-04-01T13:24:26;1.40;;;1.30;;
18716;SDS011;9487;50.892;6.906;2023-04-01T13:27:05;1.87;;;1.70;;
18716;SDS011;9487;50.892;6.906;2023-04-01T13:29:40;1.60;;;1.50;;
18716;SDS011;9487;50.892;6.906;2023-04-01T13:32:18;1.70;;;1.60;;
18716;SDS011;9487;50.892;6.906;2023-04-01T13:35:11;1.67;;;1.57;;
18716;SDS011;9487;50.892;6.906;2023-04-01T13:37:52;1.40;;;1.30;;
18716;SDS011;9487;50.892;6.906;2023-04-01T13:40:35;1.57;;;1.47;;
18716;SDS011;9487;50.892;6.906;2023-04-01T13:43:10;1.50;;;1.40;;
18716;SDS011;9487;50.892;6.906;2023-04-01T13:45:45;1.60;;;1.50;;
18716;SDS011;9487;50.892;6.906;2023-04-01T13:48:27;1.77;;;1.67;;
18716;SDS011;9487;50.892;6.906;2023-04-01T13:51:12;1.60;;;1.50;;
18716;SDS011;9487;50.892;6.906;2023-04-01T13:56:42;1.63;;;1.53;;
18716;SDS011;9487;50.892;6.906;2023-04-01T13:59:22;2.17;;;1.97;;
18716;SDS011;9487;50.892;6.906;2023-04-01T14:02:30;1.93;;;1.83;;
18716;SDS011;9487;50.892;6.906;2023-04-01T14:05:15;2.03;;;1.93;;
18716;SDS011;9487;50.892;6.906;2023-04-01T14:08:00;1.90;;;1.80;;
18716;SDS011;9487;50.892;6.906;2023-04-01T14:10:36;1.90;;;1.80;;
18716;SDS011;9487;50.892;6.906;2023-04-01T14:13:12;2.47;;;2.27;;
18716;SDS011;9487;50.892;6.906;2023-04-01T14:15:50;2.13;;;1.93;;
18716;SDS011;9487;50.892;6.906;2023-04-01T14:18:33;1.80;;;1.70;;
18716;SDS011;9487;50.892;6.906;2023-04-01T14:21:17;2.03;;;1.73;;
18716;SDS011;9487;50.892;6.906;2023-04-01T14:23:55;2.03;;;1.70;;
18716;SDS011;9487;50.892;6.906;2023-04-01T14:29:29;2.63;;;1.73;;
18716;SDS011;9487;50.892;6.906;2023-04-01T14:32:08;2.33;;;1.40;;
18716;SDS011;9487;50.892;6.906;2023-04-01T14:34:46;1.87;;;1.77;;
18716;SDS011;9487;50.892;6.906;2023-04-01T14:40:24;1.70;;;1.60;;
18716;SDS011;9487;50.892;6.906;2023-04-01T14:45:55;2.07;;;1.40;;
18716;SDS011;9487;50.892;6.906;2023-04-01T14:48:48;3.77;;;1.50;;
18716;SDS011;9487;50.892;6.906;2023-04-01T14:51:18;1.60;;;1.50;;
18716;SDS011;9487;50.892;6.906;2023-04-01T14:53:53;1.23;;;1.13;;
18716;SDS011;9487;50.892;6.906;2023-04-01T14:56:37;1.60;;;1.50;;
18716;SDS011;9487;50.892;6.906;2023-04-01T14:59:07;1.40;;;1.30;;
18716;SDS011;9487;50.892;6.906;2023-04-01T15:01:40;1.63;;;1.53;;
18716;SDS011;9487;50.892;6.906;2023-04-01T15:04:22;1.47;;;1.37;;
18716;SDS011;9487;50.892;6.906;2023-04-01T15:07:20;1.87;;;1.70;;
18716;SDS011;9487;50.892;6.906;2023-04-01T15:10:05;1.60;;;1.33;;
18716;SDS011;9487;50.892;6.906;2023-04-01T15:12:46;2.40;;;1.40;;
18716;SDS011;9487;50.892;6.906;2023-04-01T15:15:21;1.57;;;1.47;;
18716;SDS011;9487;50.892;6.906;2023-04-01T15:18:08;1.90;;;1.67;;
18716;SDS011;9487;50.892;6.906;2023-04-01T15:20:48;1.57;;;1.47;;
18716;SDS011;9487;50.892;6.906;2023-04-01T15:23:31;1.70;;;1.60;;
18716;SDS011;9487;50.892;6.906;2023-04-01T15:26:11;1.67;;;1.50;;
18716;SDS011;9487;50.892;6.906;2023-04-01T15:28:48;2.50;;;2.30;;
18716;SDS011;9487;50.892;6.906;2023-04-01T15:31:22;2.17;;;1.97;;
18716;SDS011;9487;50.892;6.906;2023-04-01T15:34:05;2.00;;;1.90;;
18716;SDS011;9487;50.892;6.906;2023-04-01T15:36:50;2.43;;;2.20;;
18716;SDS011;9487;50.892;6.906;2023-04-01T15:39:24;4.23;;;2.30;;
18716;SDS011;9487;50.892;6.906;2023-04-01T15:44:58;3.20;;;2.90;;
18716;SDS011;9487;50.892;6.906;2023-04-01T15:47:35;3.87;;;3.40;;
18716;SDS011;9487;50.892;6.906;2023-04-01T15:50:23;3.10;;;2.80;;
18716;SDS011;9487;50.892;6.906;2023-04-01T15:53:03;3.63;;;3.03;;
18716;SDS011;9487;50.892;6.906;2023-04-01T15:55:39;2.83;;;2.63;;
18716;SDS011;9487;50.892;6.906;2023-04-01T15:58:22;3.20;;;2.90;;
18716;SDS011;9487;50.892;6.906;2023-04-01T16:01:04;2.90;;;2.70;;
18716;SDS011;9487;50.892;6.906;2023-04-01T16:03:40;3.00;;;2.70;;
18716;SDS011;9487;50.892;6.906;2023-04-01T16:09:27;3.03;;;2.77;;
18716;SDS011;9487;50.892;6.906;2023-04-01T16:12:11;3.10;;;2.83;;
18716;SDS011;9487;50.892;6.906;2023-04-01T16:14:45;2.73;;;2.47;;
18716;SDS011;9487;50.892;6.906;2023-04-01T16:17:31;2.80;;;2.60;;
18716;SDS011;9487;50.892;6.906;2023-04-01T16:20:23;2.80;;;2.60;;
18716;SDS011;9487;50.892;6.906;2023-04-01T16:23:10;2.73;;;2.53;;
18716;SDS011;9487;50.892;6.906;2023-04-01T16:25:45;3.10;;;2.80;;
18716;SDS011;9487;50.892;6.906;2023-04-01T16:28:19;3.10;;;2.90;;
18716;SDS011;9487;50.892;6.906;2023-04-01T16:30:55;3.00;;;2.80;;
18716;SDS011;9487;50.892;6.906;2023-04-01T16:33:25;3.67;;;3.37;;
18716;SDS011;9487;50.892;6.906;2023-04-01T16:36:01;3.40;;;2.77;;
18716;SDS011;9487;50.892;6.906;2023-04-01T16:38:38;2.80;;;2.60;;
18716;SDS011;9487;50.892;6.906;2023-04-01T16:41:13;2.97;;;2.67;;
18716;SDS011;9487;50.892;6.906;2023-04-01T16:43:44;3.00;;;2.70;;
18716;SDS011;9487;50.892;6.906;2023-04-01T16:46:31;2.70;;;2.50;;
18716;SDS011;9487;50.892;6.906;2023-04-01T16:51:52;2.97;;;2.77;;
18716;SDS011;9487;50.892;6.906;2023-04-01T16:54:30;2.20;;;2.00;;
18716;SDS011;9487;50.892;6.906;2023-04-01T16:57:03;2.47;;;2.27;;
18716;SDS011;9487;50.892;6.906;2023-04-01T16:59:44;2.10;;;1.90;;
18716;SDS011;9487;50.892;6.906;2023-04-01T17:02:14;2.60;;;2.33;;
18716;SDS011;9487;50.892;6.906;2023-04-01T17:04:44;2.30;;;2.10;;
18716;SDS011;9487;50.892;6.906;2023-04-01T17:07:20;2.90;;;2.40;;
18716;SDS011;9487;50.892;6.906;2023-04-01T17:09:58;2.30;;;2.10;;
18716;SDS011;9487;50.892;6.906;2023-04-01T17:12:35;2.67;;;2.47;;